Time;durP1;ratioP1;P1;durP2;ratioP2;P2;SDS_P1;SDS_P2;PMS_P1;PMS_P2;Temp;Humidity;BMP_temperature;BMP_pressure;BME280_temperature;BME280_humidity;BME280_pressure;Samples;Min_cycle;Max_cycle;Signal;HPM_P1;HPM_P2
2021/05/17 00:01:10;;;;;;;0.40;0.40;;;;;;;;;;5066606;28;20033;-72
2021/05/17 00:03:37;;;;;;;0.90;0.55;;;;;;;;;;5067349;28;20483;-72
2021/05/17 00:06:04;;;;;;;0.65;0.40;;;;;;;;;;5068481;28;20029;-72
2021/05/17 00:08:30;;;;;;;0.50;0.50;;;;;;;;;;5068317;28;20491;-72
2021/05/17 00:10:56;;;;;;;0.63;0.50;;;;;;;;;;5068011;28;20024;-72
2021/05/17 00:13:22;;;;;;;1.83;0.47;;;;;;;;;;5067138;28;20097;-72
2021/05/17 00:15:48;;;;;;;1.02;0.30;;;;;;;;;;5068331;28;20032;-72
2021/05/17 00:18:14;;;;;;;0.30;0.30;;;;;;;;;;5067561;28;20154;-72
2021/05/17 00:20:41;;;;;;;0.93;0.60;;;;;;;;;;5068002;28;20440;-72
2021/05/17 00:23:07;;;;;;;0.63;0.40;;;;;;;;;;5067798;28;20360;-72
2021/05/17 00:25:33;;;;;;;0.32;0.32;;;;;;;;;;5068192;28;20020;-72
2021/05/17 00:27:59;;;;;;;0.75;0.50;;;;;;;;;;5068207;28;20048;-72
2021/05/17 00:30:27;;;;;;;0.80;0.68;;;;;;;;;;5066378;28;20483;-71
2021/05/17 00:32:53;;;;;;;0.65;0.65;;;;;;;;;;5067431;28;20503;-71
2021/05/17 00:35:19;;;;;;;0.32;0.32;;;;;;;;;;5067334;28;20541;-72
2021/05/17 00:37:46;;;;;;;0.50;0.50;;;;;;;;;;5067673;28;20020;-72
2021/05/17 00:40:13;;;;;;;2.30;0.82;;;;;;;;;;5067656;28;20028;-72
2021/05/17 00:42:40;;;;;;;1.20;0.40;;;;;;;;;;5067925;28;20108;-72
2021/05/17 00:45:08;;;;;;;0.65;0.40;;;;;;;;;;5067942;28;20046;-72
2021/05/17 00:47:38;;;;;;;0.68;0.50;;;;;;;;;;5067770;28;20024;-72
2021/05/17 00:50:04;;;;;;;0.50;0.50;;;;;;;;;;5068565;28;20089;-72
2021/05/17 00:52:31;;;;;;;0.50;0.50;;;;;;;;;;5087248;28;20079;-72
2021/05/17 00:54:57;;;;;;;0.65;0.30;;;;;;;;;;5088226;28;20107;-72
2021/05/17 00:57:24;;;;;;;0.80;0.80;;;;;;;;;;5087808;28;20035;-72
2021/05/17 00:59:50;;;;;;;0.98;0.60;;;;;;;;;;5087041;28;20024;-72
2021/05/17 01:02:16;;;;;;;0.30;0.30;;;;;;;;;;5086658;28;20028;-72
2021/05/17 01:04:42;;;;;;;0.40;0.40;;;;;;;;;;5087869;28;20055;-72
2021/05/17 01:07:08;;;;;;;0.55;0.47;;;;;;;;;;5087300;28;20027;-72
2021/05/17 01:09:35;;;;;;;1.58;0.40;;;;;;;;;;5087781;28;20059;-72
2021/05/17 01:12:02;;;;;;;0.50;0.50;;;;;;;;;;5091644;28;20079;-72
2021/05/17 01:14:29;;;;;;;0.55;0.30;;;;;;;;;;5091353;28;20501;-72
2021/05/17 01:16:55;;;;;;;0.98;0.57;;;;;;;;;;5091865;28;20078;-72
2021/05/17 01:19:37;;;;;;;0.65;0.63;;;;;;;;;;5091173;28;20615;-72
2021/05/17 01:22:10;;;;;;;0.73;0.45;;;;;;;;;;5091037;28;20027;-72
2021/05/17 01:24:37;;;;;;;0.40;0.40;;;;;;;;;;5092302;28;20551;-72
2021/05/17 01:27:04;;;;;;;0.30;0.30;;;;;;;;;;5091884;28;20115;-72
2021/05/17 01:29:31;;;;;;;0.47;0.47;;;;;;;;;;5090637;28;20113;-72
2021/05/17 01:31:58;;;;;;;0.10;0.10;;;;;;;;;;5091305;28;20498;-72
2021/05/17 01:34:25;;;;;;;1.35;0.43;;;;;;;;;;5090392;28;20073;-72
2021/05/17 01:36:51;;;;;;;0.75;0.40;;;;;;;;;;5091526;28;20605;-72
2021/05/17 01:39:19;;;;;;;0.40;0.30;;;;;;;;;;5091113;28;20070;-72
2021/05/17 01:41:45;;;;;;;2.63;1.30;;;;;;;;;;5091005;28;20481;-72
2021/05/17 01:44:12;;;;;;;0.65;0.43;;;;;;;;;;5090909;28;20390;-72
2021/05/17 01:46:39;;;;;;;0.98;0.65;;;;;;;;;;5091770;28;20043;-72
2021/05/17 01:49:05;;;;;;;0.60;0.60;;;;;;;;;;5090698;28;20071;-72
2021/05/17 01:51:31;;;;;;;0.47;0.40;;;;;;;;;;5077808;28;20487;-72
2021/05/17 01:53:59;;;;;;;0.40;0.35;;;;;;;;;;5070935;28;20051;-72
2021/05/17 01:56:26;;;;;;;2.22;0.40;;;;;;;;;;5070541;28;20041;-72
2021/05/17 01:58:52;;;;;;;0.30;0.30;;;;;;;;;;5070728;28;20124;-72
2021/05/17 02:01:19;;;;;;;1.40;0.38;;;;;;;;;;5068940;28;20024;-72
2021/05/17 02:03:46;;;;;;;1.75;0.88;;;;;;;;;;5070743;28;20028;-72
2021/05/17 02:06:14;;;;;;;0.60;0.40;;;;;;;;;;5070593;28;20031;-72
2021/05/17 02:08:50;;;;;;;0.60;0.32;;;;;;;;;;5070704;28;20048;-72
2021/05/17 02:11:18;;;;;;;0.68;0.63;;;;;;;;;;5069827;28;20033;-72
2021/05/17 02:13:45;;;;;;;0.32;0.32;;;;;;;;;;5069969;28;20066;-72
2021/05/17 02:16:13;;;;;;;0.30;0.30;;;;;;;;;;5070020;28;20090;-72
2021/05/17 02:18:40;;;;;;;1.98;0.40;;;;;;;;;;5070700;28;20020;-72
2021/05/17 02:21:06;;;;;;;0.60;0.40;;;;;;;;;;5069745;28;20032;-72
2021/05/17 02:23:32;;;;;;;0.55;0.55;;;;;;;;;;5069682;28;20546;-72
2021/05/17 02:25:59;;;;;;;0.35;0.30;;;;;;;;;;5070631;28;20027;-72
2021/05/17 02:28:26;;;;;;;2.03;1.05;;;;;;;;;;5069793;28;20028;-72
2021/05/17 02:30:52;;;;;;;0.50;0.50;;;;;;;;;;5069410;28;20058;-72
2021/05/17 02:33:19;;;;;;;0.30;0.30;;;;;;;;;;5068743;28;20052;-73
2021/05/17 02:35:45;;;;;;;0.52;0.50;;;;;;;;;;5070627;28;20376;-72
2021/05/17 02:38:11;;;;;;;0.20;0.20;;;;;;;;;;5069061;28;20082;-72
2021/05/17 02:40:38;;;;;;;0.25;0.25;;;;;;;;;;5070233;28;20433;-72
2021/05/17 02:43:08;;;;;;;0.60;0.50;;;;;;;;;;5069109;28;20028;-72
2021/05/17 02:45:34;;;;;;;0.57;0.40;;;;;;;;;;5070476;28;20487;-74
2021/05/17 02:48:01;;;;;;;0.40;0.28;;;;;;;;;;5069677;28;20113;-72
2021/05/17 02:50:33;;;;;;;0.40;0.40;;;;;;;;;;5073480;28;20096;-72
2021/05/17 02:53:00;;;;;;;0.30;0.30;;;;;;;;;;5089439;28;20024;-72
2021/05/17 02:55:30;;;;;;;0.95;0.55;;;;;;;;;;5089656;28;20404;-72
2021/05/17 02:58:03;;;;;;;1.30;0.30;;;;;;;;;;5089876;28;20020;-72
2021/05/17 03:00:31;;;;;;;2.20;0.50;;;;;;;;;;5088696;28;20066;-72
2021/05/17 03:03:18;;;;;;;1.65;0.55;;;;;;;;;;5089176;28;20039;-72
2021/05/17 03:05:45;;;;;;;0.77;0.55;;;;;;;;;;5090124;28;20028;-72
2021/05/17 03:08:12;;;;;;;0.40;0.40;;;;;;;;;;5089332;28;20028;-71
2021/05/17 03:10:39;;;;;;;0.30;0.30;;;;;;;;;;5089642;28;20012;-72
2021/05/17 03:13:10;;;;;;;1.10;0.50;;;;;;;;;;5088670;28;20395;-72
2021/05/17 03:15:37;;;;;;;0.30;0.30;;;;;;;;;;5089526;28;20398;-72
2021/05/17 03:18:04;;;;;;;0.50;0.50;;;;;;;;;;5089992;28;20027;-72
2021/05/17 03:20:30;;;;;;;1.00;0.57;;;;;;;;;;5088963;28;20030;-72
2021/05/17 03:22:57;;;;;;;0.43;0.30;;;;;;;;;;5089105;28;20028;-72
2021/05/17 03:25:24;;;;;;;1.75;0.52;;;;;;;;;;5089228;28;20028;-72
2021/05/17 03:27:50;;;;;;;0.40;0.40;;;;;;;;;;5089760;28;20267;-72
2021/05/17 03:30:17;;;;;;;0.30;0.30;;;;;;;;;;5088131;28;20028;-72
2021/05/17 03:32:43;;;;;;;0.85;0.63;;;;;;;;;;5088765;28;20055;-71
2021/05/17 03:35:09;;;;;;;0.55;0.50;;;;;;;;;;5087878;28;20088;-72
2021/05/17 03:37:35;;;;;;;0.80;0.65;;;;;;;;;;5088717;28;20103;-72
2021/05/17 03:40:01;;;;;;;0.50;0.30;;;;;;;;;;5089451;28;20497;-72
2021/05/17 03:42:27;;;;;;;0.30;0.30;;;;;;;;;;5088034;28;20331;-72
2021/05/17 03:44:53;;;;;;;1.13;0.65;;;;;;;;;;5088866;28;20099;-72
2021/05/17 03:47:19;;;;;;;1.10;0.80;;;;;;;;;;5088786;28;20028;-72
2021/05/17 03:49:45;;;;;;;0.30;0.30;;;;;;;;;;5089160;28;20127;-72
2021/05/17 03:52:12;;;;;;;0.80;0.80;;;;;;;;;;5069052;28;20523;-72
2021/05/17 03:54:38;;;;;;;0.70;0.43;;;;;;;;;;5068939;28;20046;-72
2021/05/17 03:57:04;;;;;;;0.65;0.38;;;;;;;;;;5068876;28;20032;-72
2021/05/17 03:59:32;;;;;;;1.00;0.68;;;;;;;;;;5067454;28;20023;-72
2021/05/17 04:01:58;;;;;;;0.30;0.30;;;;;;;;;;5068100;28;20020;-72
2021/05/17 04:04:26;;;;;;;0.50;0.50;;;;;;;;;;5067575;28;20028;-72
2021/05/17 04:07:31;;;;;;;3.10;0.30;;;;;;;;;;5068491;28;20017;-72
2021/05/17 04:15:01;;;;;;;0.38;0.32;;;;;;;;;;5068023;28;20171;-72
2021/05/17 04:17:27;;;;;;;0.60;0.45;;;;;;;;;;5067398;28;20040;-72
2021/05/17 04:19:53;;;;;;;1.42;0.68;;;;;;;;;;5068077;28;20033;-72
2021/05/17 04:22:19;;;;;;;0.50;0.50;;;;;;;;;;5066799;28;20510;-72
2021/05/17 04:24:45;;;;;;;0.65;0.45;;;;;;;;;;5068705;28;20028;-72
2021/05/17 04:27:11;;;;;;;0.80;0.65;;;;;;;;;;5067539;28;20074;-72
2021/05/17 04:29:37;;;;;;;0.35;0.30;;;;;;;;;;5067364;28;20058;-72
2021/05/17 04:32:03;;;;;;;0.60;0.50;;;;;;;;;;5067734;28;20031;-72
2021/05/17 04:34:29;;;;;;;1.27;0.30;;;;;;;;;;5067702;28;20568;-72
2021/05/17 04:36:56;;;;;;;1.38;0.43;;;;;;;;;;5067899;28;20409;-72
2021/05/17 04:39:22;;;;;;;0.40;0.40;;;;;;;;;;5067250;28;20094;-72
2021/05/17 04:41:48;;;;;;;0.88;0.80;;;;;;;;;;5067348;28;20035;-72
2021/05/17 04:44:15;;;;;;;0.35;0.35;;;;;;;;;;5067218;28;20052;-72
2021/05/17 04:46:41;;;;;;;0.57;0.40;;;;;;;;;;5067629;28;20027;-72
2021/05/17 04:49:07;;;;;;;0.73;0.73;;;;;;;;;;5067194;28;20538;-72
2021/05/17 04:51:33;;;;;;;2.50;0.75;;;;;;;;;;5080754;28;20174;-72
2021/05/17 04:53:59;;;;;;;0.82;0.43;;;;;;;;;;5087960;28;20029;-72
2021/05/17 04:56:25;;;;;;;0.40;0.40;;;;;;;;;;5087502;28;20039;-72
2021/05/17 04:58:51;;;;;;;0.93;0.30;;;;;;;;;;5088082;28;20035;-72
2021/05/17 05:01:17;;;;;;;0.65;0.40;;;;;;;;;;5085975;28;20032;-72
2021/05/17 05:03:43;;;;;;;0.75;0.52;;;;;;;;;;5087804;28;20020;-72
2021/05/17 05:06:10;;;;;;;0.63;0.30;;;;;;;;;;5087342;28;20084;-72
2021/05/17 05:08:36;;;;;;;0.57;0.50;;;;;;;;;;5087790;28;20028;-72
2021/05/17 05:11:02;;;;;;;0.38;0.30;;;;;;;;;;5088037;28;20028;-73
2021/05/17 05:13:28;;;;;;;0.30;0.30;;;;;;;;;;5086784;28;20017;-72
2021/05/17 05:15:54;;;;;;;1.75;0.45;;;;;;;;;;5088063;28;20126;-72
2021/05/17 05:18:20;;;;;;;0.95;0.70;;;;;;;;;;5086888;28;20020;-72
2021/05/17 05:20:47;;;;;;;1.13;1.02;;;;;;;;;;5087912;28;20032;-72
2021/05/17 05:23:17;;;;;;;0.45;0.43;;;;;;;;;;5086905;28;20028;-72
2021/05/17 05:28:32;;;;;;;1.13;0.80;;;;;;;;;;5086796;28;20092;-72
2021/05/17 05:31:09;;;;;;;0.45;0.45;;;;;;;;;;5087150;28;20028;-71
2021/05/17 05:33:35;;;;;;;1.55;0.85;;;;;;;;;;5087174;28;20023;-72
2021/05/17 05:36:01;;;;;;;0.73;0.73;;;;;;;;;;5087813;28;20135;-72
2021/05/17 05:38:27;;;;;;;0.40;0.40;;;;;;;;;;5086847;28;20487;-72
2021/05/17 05:40:53;;;;;;;0.80;0.47;;;;;;;;;;5087614;28;20066;-72
2021/05/17 05:43:19;;;;;;;1.98;1.00;;;;;;;;;;5086965;28;20062;-72
2021/05/17 05:45:46;;;;;;;0.95;0.68;;;;;;;;;;5087853;28;20080;-72
2021/05/17 05:48:13;;;;;;;2.47;0.73;;;;;;;;;;5084128;28;20087;-72
2021/05/17 05:50:39;;;;;;;2.28;0.90;;;;;;;;;;5071559;28;20020;-72
2021/05/17 05:53:06;;;;;;;1.23;0.88;;;;;;;;;;5065597;28;20036;-72
2021/05/17 05:55:32;;;;;;;1.73;1.13;;;;;;;;;;5062086;28;20028;-72
2021/05/17 05:57:58;;;;;;;5.57;1.15;;;;;;;;;;5063459;28;20025;-72
2021/05/17 06:00:29;;;;;;;1.92;1.13;;;;;;;;;;5068291;28;20035;-72
2021/05/17 06:02:56;;;;;;;5.40;1.63;;;;;;;;;;5068803;28;20027;-71
2021/05/17 06:05:22;;;;;;;3.25;0.95;;;;;;;;;;5065194;28;20085;-71
2021/05/17 06:07:48;;;;;;;0.85;0.85;;;;;;;;;;5063955;28;20040;-71
2021/05/17 06:10:14;;;;;;;3.50;0.75;;;;;;;;;;5051869;28;20025;-71
2021/05/17 06:12:41;;;;;;;3.88;0.80;;;;;;;;;;5064089;28;20716;-71
2021/05/17 06:15:08;;;;;;;3.22;1.00;;;;;;;;;;5063456;28;20036;-72
2021/05/17 06:17:34;;;;;;;1.83;1.20;;;;;;;;;;5067128;28;20016;-71
2021/05/17 06:20:00;;;;;;;3.60;2.15;;;;;;;;;;5069673;28;20123;-71
2021/05/17 06:22:26;;;;;;;2.75;1.27;;;;;;;;;;5060895;28;20032;-72
2021/05/17 06:24:53;;;;;;;3.17;1.27;;;;;;;;;;5059936;28;20314;-72
2021/05/17 06:27:20;;;;;;;2.10;1.35;;;;;;;;;;5064414;28;20017;-72
2021/05/17 06:29:46;;;;;;;3.10;1.98;;;;;;;;;;5058435;28;20024;-72
2021/05/17 06:32:13;;;;;;;5.28;2.25;;;;;;;;;;5057532;28;20475;-74
2021/05/17 06:34:40;;;;;;;4.57;1.27;;;;;;;;;;5067583;28;20035;-72
2021/05/17 06:37:07;;;;;;;2.72;1.50;;;;;;;;;;5066649;28;20498;-74
2021/05/17 06:39:33;;;;;;;3.08;1.42;;;;;;;;;;5064352;28;20502;-71
2021/05/17 06:41:59;;;;;;;1.58;1.48;;;;;;;;;;5046316;28;20028;-71
2021/05/17 06:44:25;;;;;;;2.70;1.55;;;;;;;;;;5071745;28;20056;-72
2021/05/17 06:46:52;;;;;;;2.53;1.40;;;;;;;;;;5077772;28;20336;-71
2021/05/17 06:49:18;;;;;;;3.70;1.55;;;;;;;;;;5062356;28;20064;-71
2021/05/17 06:51:44;;;;;;;1.27;1.05;;;;;;;;;;5067821;28;20024;-71
2021/05/17 06:54:15;;;;;;;3.97;1.63;;;;;;;;;;5055716;28;20021;-71
2021/05/17 06:56:45;;;;;;;7.68;1.63;;;;;;;;;;5046537;28;20519;-72
2021/05/17 06:59:14;;;;;;;2.67;0.85;;;;;;;;;;5056772;28;20310;-72
2021/05/17 07:01:40;;;;;;;2.40;1.42;;;;;;;;;;5058692;28;20029;-72
2021/05/17 07:04:09;;;;;;;0.73;0.70;;;;;;;;;;5045382;28;20040;-72
2021/05/17 07:06:36;;;;;;;0.95;0.60;;;;;;;;;;5049538;28;20135;-73
2021/05/17 07:12:00;;;;;;;0.65;0.40;;;;;;;;;;5050398;28;20514;-74
2021/05/17 07:14:26;;;;;;;1.35;1.10;;;;;;;;;;5055646;28;20544;-72
2021/05/17 07:16:53;;;;;;;3.50;0.80;;;;;;;;;;5055469;28;20094;-75
2021/05/17 07:19:19;;;;;;;2.50;0.98;;;;;;;;;;5044236;28;20384;-73
2021/05/17 07:24:31;;;;;;;2.30;1.20;;;;;;;;;;5054344;28;21220;-73
2021/05/17 07:26:57;;;;;;;2.40;0.85;;;;;;;;;;5051812;28;20028;-73
2021/05/17 07:29:23;;;;;;;1.27;0.77;;;;;;;;;;5048747;28;20280;-73
2021/05/17 07:31:50;;;;;;;2.67;1.20;;;;;;;;;;5053416;28;20106;-73
2021/05/17 07:34:17;;;;;;;5.00;2.00;;;;;;;;;;5051773;28;20679;-74
2021/05/17 07:36:46;;;;;;;1.00;0.70;;;;;;;;;;5051251;28;20114;-73
2021/05/17 07:39:13;;;;;;;2.88;0.80;;;;;;;;;;5050471;28;21207;-73
2021/05/17 07:41:39;;;;;;;1.35;0.63;;;;;;;;;;5053456;28;20031;-72
2021/05/17 07:44:05;;;;;;;3.15;0.82;;;;;;;;;;5054380;28;20028;-73
2021/05/17 07:46:31;;;;;;;3.42;0.80;;;;;;;;;;5052203;28;20021;-73
2021/05/17 07:51:29;;;;;;;2.55;0.60;;;;;;;;;;5054968;28;20051;-73
2021/05/17 07:53:56;;;;;;;2.08;0.80;;;;;;;;;;5055598;28;20033;-73
2021/05/17 07:56:23;;;;;;;1.38;0.90;;;;;;;;;;5051996;28;20122;-70
2021/05/17 07:58:51;;;;;;;1.25;0.73;;;;;;;;;;5054866;28;21129;-72
2021/05/17 08:01:17;;;;;;;0.38;0.38;;;;;;;;;;5047445;28;20040;-73
2021/05/17 08:03:44;;;;;;;1.35;0.73;;;;;;;;;;5053740;28;20115;-76
2021/05/17 08:06:10;;;;;;;1.23;0.90;;;;;;;;;;5053745;28;20065;-72
2021/05/17 08:08:36;;;;;;;3.30;0.60;;;;;;;;;;5051954;28;20033;-74
2021/05/17 08:11:03;;;;;;;1.17;0.70;;;;;;;;;;5053261;28;20028;-72
2021/05/17 08:13:29;;;;;;;2.80;1.08;;;;;;;;;;5053715;28;20031;-72
2021/05/17 08:15:55;;;;;;;1.52;1.00;;;;;;;;;;5055230;28;20570;-76
2021/05/17 08:18:21;;;;;;;2.20;0.90;;;;;;;;;;5051956;28;20036;-73
2021/05/17 08:20:48;;;;;;;2.08;0.93;;;;;;;;;;5052589;28;20545;-76
2021/05/17 08:23:16;;;;;;;2.75;1.48;;;;;;;;;;5053081;28;20037;-73
2021/05/17 08:25:43;;;;;;;2.45;1.15;;;;;;;;;;5051771;28;20020;-73
2021/05/17 08:28:09;;;;;;;3.47;1.00;;;;;;;;;;5050820;28;20099;-73
2021/05/17 08:30:42;;;;;;;2.85;0.52;;;;;;;;;;5054095;28;20032;-73
2021/05/17 08:33:08;;;;;;;2.75;0.65;;;;;;;;;;5055159;28;20123;-75
2021/05/17 08:35:35;;;;;;;1.45;1.00;;;;;;;;;;5049936;28;20047;-73
2021/05/17 08:38:01;;;;;;;1.45;0.63;;;;;;;;;;5053615;28;20501;-72
2021/05/17 08:40:27;;;;;;;4.70;0.70;;;;;;;;;;5049486;28;20028;-73
2021/05/17 08:42:56;;;;;;;1.67;0.80;;;;;;;;;;5054309;28;20036;-74
2021/05/17 08:45:22;;;;;;;2.80;1.05;;;;;;;;;;5054552;28;20123;-73
2021/05/17 08:47:49;;;;;;;0.70;0.55;;;;;;;;;;5049194;28;20124;-73
2021/05/17 08:50:15;;;;;;;1.50;0.90;;;;;;;;;;5047095;28;20041;-73
2021/05/17 08:52:42;;;;;;;3.78;1.42;;;;;;;;;;5054428;28;20033;-74
2021/05/17 08:55:10;;;;;;;2.55;0.65;;;;;;;;;;5053336;28;20520;-75
2021/05/17 08:57:36;;;;;;;3.70;0.77;;;;;;;;;;5051678;28;20033;-74
2021/05/17 09:00:04;;;;;;;2.17;1.02;;;;;;;;;;5052805;28;20059;-73
2021/05/17 09:02:30;;;;;;;3.00;0.93;;;;;;;;;;5053194;28;20109;-74
2021/05/17 09:05:14;;;;;;;4.18;0.90;;;;;;;;;;5049646;28;20025;-74
2021/05/17 09:07:41;;;;;;;4.43;1.48;;;;;;;;;;5049278;28;20032;-74
2021/05/17 09:10:18;;;;;;;1.58;0.90;;;;;;;;;;5049461;28;20029;-75
2021/05/17 09:12:58;;;;;;;1.95;1.40;;;;;;;;;;5053034;28;20124;-75
2021/05/17 09:15:35;;;;;;;1.85;1.05;;;;;;;;;;5051290;28;21427;-74
2021/05/17 09:18:03;;;;;;;4.03;1.38;;;;;;;;;;5050501;28;20059;-73
2021/05/17 09:20:37;;;;;;;1.73;0.85;;;;;;;;;;5046950;28;20109;-79
2021/05/17 09:23:32;;;;;;;3.92;0.90;;;;;;;;;;5052197;28;20029;-73
2021/05/17 09:26:10;;;;;;;1.00;0.90;;;;;;;;;;5051844;28;20449;-73
2021/05/17 09:28:38;;;;;;;2.47;0.73;;;;;;;;;;5052152;28;20188;-74
2021/05/17 09:31:06;;;;;;;4.72;1.30;;;;;;;;;;5053019;28;20037;-74
2021/05/17 09:33:38;;;;;;;1.88;0.65;;;;;;;;;;5053728;28;20020;-74
2021/05/17 09:36:10;;;;;;;2.67;1.55;;;;;;;;;;5054855;28;20044;-73
2021/05/17 09:38:36;;;;;;;2.88;0.70;;;;;;;;;;5055338;28;20016;-73
2021/05/17 09:41:06;;;;;;;3.97;0.70;;;;;;;;;;5057223;28;20028;-74
2021/05/17 09:43:33;;;;;;;0.50;0.40;;;;;;;;;;5057544;28;20020;-74
2021/05/17 09:45:59;;;;;;;5.57;0.88;;;;;;;;;;5058433;28;20036;-75
2021/05/17 09:48:29;;;;;;;1.15;0.60;;;;;;;;;;5054125;28;20043;-74
2021/05/17 09:51:08;;;;;;;2.67;0.75;;;;;;;;;;5053975;28;20032;-73
2021/05/17 09:53:36;;;;;;;1.20;0.80;;;;;;;;;;5054237;28;20036;-80
2021/05/17 09:56:08;;;;;;;3.50;2.42;;;;;;;;;;5038967;28;20471;-74
2021/05/17 09:58:39;;;;;;;3.70;1.25;;;;;;;;;;5056357;28;20052;-73
2021/05/17 10:01:07;;;;;;;2.42;1.13;;;;;;;;;;5055114;28;20581;-74
2021/05/17 10:03:34;;;;;;;1.50;0.93;;;;;;;;;;5057588;28;20025;-74
2021/05/17 10:06:00;;;;;;;2.75;0.70;;;;;;;;;;5028520;28;20410;-76
2021/05/17 10:08:27;;;;;;;5.50;1.00;;;;;;;;;;5056534;28;20171;-75
2021/05/17 10:10:53;;;;;;;2.67;0.75;;;;;;;;;;5057531;28;20754;-75
2021/05/17 10:13:19;;;;;;;2.28;0.85;;;;;;;;;;5052928;28;20115;-76
2021/05/17 10:15:47;;;;;;;1.20;1.10;;;;;;;;;;5056536;28;20048;-79
2021/05/17 10:18:14;;;;;;;1.73;0.95;;;;;;;;;;5054719;28;20032;-75
2021/05/17 10:20:41;;;;;;;6.45;0.80;;;;;;;;;;5058572;28;20044;-75
2021/05/17 10:23:07;;;;;;;1.88;0.77;;;;;;;;;;5053067;28;20032;-76
2021/05/17 10:25:35;;;;;;;2.83;1.20;;;;;;;;;;5059218;28;20036;-76
2021/05/17 10:28:09;;;;;;;5.40;0.90;;;;;;;;;;5051870;28;20107;-77
2021/05/17 10:30:37;;;;;;;1.23;0.98;;;;;;;;;;5055929;28;20020;-75
2021/05/17 10:33:14;;;;;;;3.80;1.38;;;;;;;;;;5057509;28;20028;-75
2021/05/17 10:35:40;;;;;;;3.75;2.17;;;;;;;;;;5058609;28;20102;-75
2021/05/17 10:38:15;;;;;;;4.18;2.17;;;;;;;;;;5038560;28;20693;-77
2021/05/17 10:40:44;;;;;;;2.92;0.93;;;;;;;;;;5058878;28;20037;-78
2021/05/17 10:43:29;;;;;;;3.88;1.10;;;;;;;;;;5057128;28;20040;-78
2021/05/17 10:46:37;;;;;;;1.23;0.65;;;;;;;;;;5055738;28;20024;-76
2021/05/17 10:49:24;;;;;;;4.53;0.88;;;;;;;;;;5028057;28;20553;-77
2021/05/17 10:51:51;;;;;;;5.25;1.25;;;;;;;;;;5056204;28;20037;-79
2021/05/17 10:54:28;;;;;;;2.92;0.88;;;;;;;;;;5055577;28;20037;-78
2021/05/17 10:56:57;;;;;;;3.83;1.30;;;;;;;;;;5054137;28;20047;-75
2021/05/17 11:02:30;;;;;;;2.85;0.80;;;;;;;;;;5055520;28;20168;-75
2021/05/17 11:04:58;;;;;;;0.73;0.37;;;;;;;;;;5058674;28;20032;-76
2021/05/17 11:07:34;;;;;;;1.83;0.80;;;;;;;;;;5054898;28;20036;-75
2021/05/17 11:10:03;;;;;;;1.50;0.70;;;;;;;;;;5049638;28;20029;-75
2021/05/17 11:12:29;;;;;;;4.40;1.08;;;;;;;;;;5056441;28;20036;-75
2021/05/17 11:15:06;;;;;;;2.65;0.52;;;;;;;;;;5055405;28;20059;-75
2021/05/17 11:17:52;;;;;;;1.98;1.48;;;;;;;;;;5055539;28;20032;-75
2021/05/17 11:20:37;;;;;;;5.28;1.42;;;;;;;;;;5005764;28;20048;-75
2021/05/17 11:23:03;;;;;;;1.88;0.90;;;;;;;;;;5052431;28;20047;-75
2021/05/17 11:25:44;;;;;;;1.75;0.93;;;;;;;;;;5054323;28;20034;-75
2021/05/17 11:28:10;;;;;;;3.72;0.95;;;;;;;;;;5052529;28;20055;-74
2021/05/17 11:30:41;;;;;;;4.40;0.68;;;;;;;;;;5049425;28;20036;-75
2021/05/17 11:33:13;;;;;;;2.70;0.75;;;;;;;;;;5042536;28;20058;-75
2021/05/17 11:35:59;;;;;;;1.52;0.70;;;;;;;;;;5053947;28;20141;-72
2021/05/17 11:38:25;;;;;;;3.55;1.05;;;;;;;;;;5048812;28;20107;-74
2021/05/17 11:40:51;;;;;;;3.80;1.02;;;;;;;;;;5044285;28;20596;-75
2021/05/17 11:43:18;;;;;;;3.35;1.00;;;;;;;;;;5053079;28;20039;-75
2021/05/17 11:45:45;;;;;;;1.23;0.60;;;;;;;;;;5054239;28;20032;-75
2021/05/17 11:48:11;;;;;;;2.15;0.60;;;;;;;;;;5050928;28;20052;-74
2021/05/17 11:50:37;;;;;;;1.90;0.43;;;;;;;;;;5052866;28;20494;-76
2021/05/17 11:53:04;;;;;;;1.08;0.90;;;;;;;;;;5053136;28;20545;-75
2021/05/17 11:55:30;;;;;;;0.63;0.57;;;;;;;;;;5054786;28;20048;-85
2021/05/17 11:57:56;;;;;;;1.95;0.82;;;;;;;;;;5053984;28;20032;-77
2021/05/17 12:00:25;;;;;;;0.80;0.60;;;;;;;;;;5051514;28;20118;-74
2021/05/17 12:02:53;;;;;;;1.75;0.93;;;;;;;;;;5056141;28;20038;-78
2021/05/17 12:05:21;;;;;;;1.70;0.63;;;;;;;;;;5054364;28;20040;-78
2021/05/17 12:07:51;;;;;;;3.65;1.85;;;;;;;;;;5052195;28;20553;-75
2021/05/17 12:10:18;;;;;;;0.77;0.50;;;;;;;;;;5052619;28;20753;-75
2021/05/17 12:12:44;;;;;;;2.55;0.90;;;;;;;;;;5056176;28;20155;-75
2021/05/17 12:15:11;;;;;;;3.67;1.27;;;;;;;;;;5053376;28;20048;-75
2021/05/17 12:17:38;;;;;;;1.42;0.93;;;;;;;;;;5049551;28;20170;-75
2021/05/17 12:20:07;;;;;;;1.13;0.65;;;;;;;;;;5052550;28;20047;-75
2021/05/17 12:22:37;;;;;;;2.00;0.90;;;;;;;;;;5055705;28;20116;-75
2021/05/17 12:25:23;;;;;;;1.45;0.77;;;;;;;;;;5053804;28;20033;-75
2021/05/17 12:27:50;;;;;;;1.38;1.17;;;;;;;;;;5053285;28;20021;-75
2021/05/17 12:30:17;;;;;;;4.40;0.98;;;;;;;;;;5051064;28;20029;-75
2021/05/17 12:32:46;;;;;;;1.05;0.80;;;;;;;;;;5049889;28;20044;-74
2021/05/17 12:35:12;;;;;;;2.30;1.17;;;;;;;;;;5053382;28;20484;-74
2021/05/17 12:37:48;;;;;;;1.50;0.77;;;;;;;;;;5054129;28;20028;-74
2021/05/17 12:40:26;;;;;;;2.90;1.35;;;;;;;;;;5053690;28;20032;-74
2021/05/17 12:42:58;;;;;;;2.00;1.08;;;;;;;;;;5055120;28;20568;-75
2021/05/17 12:45:25;;;;;;;1.10;0.80;;;;;;;;;;5055114;28;20031;-75
2021/05/17 12:47:52;;;;;;;5.13;1.27;;;;;;;;;;5054230;28;20062;-74
2021/05/17 12:50:24;;;;;;;2.13;0.98;;;;;;;;;;5054926;28;20025;-75
2021/05/17 12:53:01;;;;;;;1.35;0.77;;;;;;;;;;5055828;28;20048;-74
2021/05/17 12:55:27;;;;;;;4.03;0.68;;;;;;;;;;5055107;28;20113;-75
2021/05/17 12:58:02;;;;;;;2.40;0.82;;;;;;;;;;5054847;28;20818;-74
2021/05/17 13:00:42;;;;;;;0.60;0.60;;;;;;;;;;5055044;28;20383;-75
2021/05/17 13:03:12;;;;;;;1.65;0.65;;;;;;;;;;5046589;28;20600;-75
2021/05/17 13:05:51;;;;;;;7.18;0.80;;;;;;;;;;5052565;28;20036;-74
2021/05/17 13:08:17;;;;;;;1.48;0.85;;;;;;;;;;5057673;28;20033;-75
2021/05/17 13:10:52;;;;;;;2.10;1.02;;;;;;;;;;5059915;28;20222;-74
2021/05/17 13:13:19;;;;;;;1.58;1.35;;;;;;;;;;5059720;28;20900;-74
2021/05/17 13:15:58;;;;;;;2.28;1.00;;;;;;;;;;5060572;28;20044;-74
2021/05/17 13:18:29;;;;;;;2.83;0.73;;;;;;;;;;5054693;28;20059;-81
2021/05/17 13:21:16;;;;;;;2.00;1.20;;;;;;;;;;5058757;28;20045;-76
2021/05/17 13:31:49;;;;;;;2.30;1.10;;;;;;;;;;5059295;28;20079;-74
2021/05/17 13:34:16;;;;;;;1.48;0.88;;;;;;;;;;5058658;28;20055;-75
2021/05/17 13:36:42;;;;;;;2.15;0.70;;;;;;;;;;5055948;28;20035;-78
2021/05/17 13:39:08;;;;;;;4.10;1.08;;;;;;;;;;5059393;28;20055;-77
2021/05/17 13:41:34;;;;;;;2.55;1.08;;;;;;;;;;5059995;28;20021;-74
2021/05/17 13:44:00;;;;;;;3.35;0.80;;;;;;;;;;5057995;28;20123;-74
2021/05/17 13:46:27;;;;;;;7.32;1.23;;;;;;;;;;5056942;28;20037;-74
2021/05/17 13:48:53;;;;;;;1.75;0.88;;;;;;;;;;5055813;28;20044;-75
2021/05/17 13:51:24;;;;;;;2.20;1.20;;;;;;;;;;5058458;28;20074;-74
2021/05/17 13:53:51;;;;;;;3.42;1.00;;;;;;;;;;5059224;28;20349;-75
2021/05/17 13:56:17;;;;;;;5.40;0.98;;;;;;;;;;5059789;28;20857;-79
2021/05/17 13:58:43;;;;;;;4.70;1.65;;;;;;;;;;5053506;28;20031;-75
2021/05/17 14:01:09;;;;;;;7.28;2.30;;;;;;;;;;5053261;28;20037;-75
2021/05/17 14:03:35;;;;;;;4.43;2.88;;;;;;;;;;5036483;28;20506;-74
2021/05/17 14:06:01;;;;;;;5.70;4.13;;;;;;;;;;5054565;28;20035;-74
2021/05/17 14:08:27;;;;;;;3.72;2.95;;;;;;;;;;5054484;28;20040;-76
2021/05/17 14:10:53;;;;;;;10.82;2.75;;;;;;;;;;5051418;28;20027;-75
2021/05/17 14:13:20;;;;;;;5.95;2.35;;;;;;;;;;5053910;28;20036;-74
2021/05/17 14:15:47;;;;;;;2.45;1.83;;;;;;;;;;5056167;28;20043;-75
2021/05/17 14:18:13;;;;;;;5.53;2.85;;;;;;;;;;5053329;28;20135;-75
2021/05/17 14:20:41;;;;;;;4.32;2.00;;;;;;;;;;5058771;28;20024;-75
2021/05/17 14:23:07;;;;;;;4.38;1.92;;;;;;;;;;5057666;28;20052;-75
2021/05/17 14:25:33;;;;;;;3.15;1.95;;;;;;;;;;5054292;28;20024;-74
2021/05/17 14:27:59;;;;;;;3.80;1.48;;;;;;;;;;5056104;28;20566;-75
2021/05/17 14:30:26;;;;;;;3.72;1.83;;;;;;;;;;5056749;28;20035;-75
2021/05/17 14:32:52;;;;;;;3.70;2.20;;;;;;;;;;5058046;28;20377;-75
2021/05/17 14:35:18;;;;;;;1.98;1.38;;;;;;;;;;5058025;28;20043;-78
2021/05/17 14:37:44;;;;;;;5.40;2.10;;;;;;;;;;5057580;28;20036;-76
2021/05/17 14:40:12;;;;;;;3.65;1.63;;;;;;;;;;5057542;28;20054;-78
2021/05/17 14:42:39;;;;;;;3.50;1.40;;;;;;;;;;5057440;28;20511;-77
2021/05/17 14:45:06;;;;;;;3.85;1.88;;;;;;;;;;5058555;28;20037;-77
2021/05/17 14:47:32;;;;;;;8.48;1.60;;;;;;;;;;5050043;28;20033;-75
2021/05/17 14:49:58;;;;;;;3.17;1.98;;;;;;;;;;5056356;28;20071;-76
2021/05/17 14:52:28;;;;;;;4.03;1.90;;;;;;;;;;5057740;28;20033;-75
2021/05/17 14:54:55;;;;;;;4.57;1.27;;;;;;;;;;5057248;28;20029;-76
2021/05/17 14:57:21;;;;;;;6.15;2.38;;;;;;;;;;5048584;28;20129;-75
2021/05/17 14:59:47;;;;;;;1.98;1.38;;;;;;;;;;5053440;28;20579;-81
2021/05/17 15:02:14;;;;;;;2.90;1.85;;;;;;;;;;5055432;28;20040;-79
2021/05/17 15:04:40;;;;;;;4.25;1.73;;;;;;;;;;5055923;28;20020;-75
2021/05/17 15:07:06;;;;;;;10.82;1.80;;;;;;;;;;5051654;28;20487;-75
2021/05/17 15:09:32;;;;;;;2.90;1.80;;;;;;;;;;5054464;28;20268;-75
2021/05/17 15:11:58;;;;;;;5.00;2.30;;;;;;;;;;5056973;28;20432;-75
2021/05/17 15:14:25;;;;;;;5.10;1.77;;;;;;;;;;5055062;28;20827;-76
2021/05/17 15:16:51;;;;;;;5.47;1.90;;;;;;;;;;5054497;28;20047;-76